Terminal Aerodrome Forecast
Issued by NWS

Home | Current Version | Previous Version | Text Only | Print | Product List | Glossary On
Versions: 1 2 3 4 5 6 7 8 9 10 11 12 13 14 15 16 17 18 19 20 21 22
000
FTUS41 KCLE 221700
TAFFDY
TAF
KFDY 221730Z 2218/2318 22010KT P6SM SCT050
     FM222300 22006KT P6SM BKN200
     FM230900 26008KT P6SM VCSH BKN050 OVC100
     FM231300 31010KT P6SM OVC025=

USA.gov is the U.S. government's official web portal to all federal, state and local government web resources and services.